Terminal Aerodrome Forecast
Issued by NWS Nashville, TN

Home | Current Version | Previous Version | Text Only | Print | Product List | Glossary On
Versions: 1 2 3 4 5 6 7 8 9 10 11 12 13 14 15 16 17 18 19 20 21 22 23 24 25 26 27 28 29 30 31 32 33 34 35 36
000
FTUS44 KOHX 032157 AAD
TAFCSV
TAF AMD
KCSV 032157Z 0322/0418 24007KT P6SM VCSH SCT025 BKN040
     FM040200 24010KT P6SM VCSH OVC020
     FM040700 28008KT 4SM BR OVC006 PROB30 0409/0413 -SHRA
     FM041300 25006KT P6SM BKN020=

USA.gov is the U.S. government's official web portal to all federal, state and local government web resources and services.